createdAt,value
2022-12-13T02:27:43.998Z,25.25
2022-12-13T02:29:30.695Z,22.30
2022-12-13T02:33:45.821Z,18.92
2022-12-13T02:35:05.109Z,20.43
2022-12-13T02:36:37.041Z,19.80
2022-12-13T02:40:38.529Z,15.58
2022-12-13T02:41:52.982Z,17.48
2022-12-13T02:43:05.742Z,16.50
2022-12-13T02:44:25.925Z,15.92
2022-12-13T02:45:47.943Z,17.00
2022-12-13T02:47:03.860Z,16.93
2022-12-13T02:48:15.593Z,15.87
2022-12-13T02:49:28.237Z,15.23
2022-12-13T02:50:39.485Z,16.02
2022-12-13T02:51:52.683Z,15.25
2022-12-13T02:53:04.782Z,16.15
2022-12-13T02:54:14.445Z,17.20
2022-12-13T02:55:28.054Z,17.87
2022-12-13T02:56:36.235Z,16.75
2022-12-13T02:57:48.978Z,17.83
2022-12-13T02:59:00.578Z,17.87
2022-12-13T03:01:44.706Z,18.92
2022-12-13T03:04:46.504Z,18.58
2022-12-13T03:06:33.738Z,20.50
2022-12-13T03:09:21.370Z,20.47
2022-12-13T03:12:12.100Z,21.07
2022-12-13T03:13:45.706Z,22.37
2022-12-13T03:16:36.413Z,21.80
2022-12-13T03:19:12.309Z,24.63
2022-12-13T03:20:25.063Z,20.55
2022-12-13T03:22:58.928Z,22.70
2022-12-13T03:24:08.703Z,24.72
2022-12-13T03:26:37.645Z,23.67
2022-12-13T03:27:46.810Z,24.13
2022-12-13T03:28:57.054Z,21.30
2022-12-13T03:30:08.843Z,24.42
2022-12-13T03:32:32.967Z,21.50
2022-12-13T03:33:42.236Z,22.30
2022-12-13T03:34:53.471Z,23.82
2022-12-13T03:36:02.968Z,23.67
2022-12-13T03:37:12.327Z,23.02
2022-12-13T03:39:37.871Z,22.87
2022-12-13T03:40:48.140Z,23.18
2022-12-13T03:42:00.938Z,24.63
2022-12-13T03:43:09.447Z,24.62
2022-12-13T03:44:18.457Z,24.57
2022-12-13T03:45:28.191Z,22.62
2022-12-13T03:46:36.783Z,23.52
2022-12-13T03:47:45.807Z,22.20
2022-12-13T03:48:55.441Z,24.15
2022-12-13T03:50:25.721Z,22.53
2022-12-13T03:51:17.984Z,19.95
2022-12-13T03:53:44.099Z,16.72
2022-12-13T03:54:53.940Z,18.00
2022-12-13T03:56:05.648Z,18.42
2022-12-13T03:57:16.178Z,20.63
2022-12-13T03:59:41.065Z,20.55
2022-12-13T04:00:49.763Z,20.92
2022-12-13T04:01:59.454Z,22.88
2022-12-13T04:03:10.275Z,22.18
2022-12-13T04:05:29.204Z,22.62
2022-12-13T04:06:38.471Z,23.00
2022-12-13T04:07:48.777Z,23.90
2022-12-13T04:08:57.357Z,24.10
2022-12-13T04:10:25.324Z,24.55
2022-12-13T04:11:42.870Z,23.43
2022-12-13T04:13:06.988Z,23.75
2022-12-13T04:14:22.555Z,24.30
2022-12-13T04:15:27.675Z,23.17
2022-12-13T04:16:36.745Z,23.90
2022-12-13T04:19:00.295Z,23.18
2022-12-13T04:21:31.833Z,26.18
2022-12-13T04:22:41.618Z,24.02
2022-12-13T04:23:50.135Z,26.03
2022-12-13T04:24:58.748Z,25.10
2022-12-13T04:26:07.750Z,24.20
2022-12-13T04:27:16.886Z,25.86
2022-12-13T04:28:26.606Z,24.30
2022-12-13T04:29:35.221Z,25.52
2022-12-13T04:30:44.438Z,25.83
2022-12-13T04:31:54.377Z,23.40
2022-12-13T04:33:04.017Z,22.50
2022-12-13T04:34:12.927Z,23.54
2022-12-13T04:36:36.258Z,22.15
2022-12-13T04:37:45.744Z,21.30
2022-12-13T04:38:54.893Z,22.58
2022-12-13T04:40:04.708Z,23.45
2022-12-13T04:41:17.670Z,25.45
2022-12-13T04:42:27.327Z,23.90
2022-12-13T04:43:37.035Z,25.72
2022-12-13T04:44:47.186Z,25.75
2022-12-13T04:47:10.946Z,28.95
2022-12-13T04:48:31.084Z,25.93
2022-12-13T04:49:31.449Z,25.80
2022-12-13T04:50:42.311Z,23.05
2022-12-13T04:51:53.632Z,23.93
2022-12-13T04:54:24.222Z,24.55
2022-12-13T04:55:28.949Z,24.45
2022-12-13T04:57:53.373Z,25.35
2022-12-13T04:59:02.400Z,26.97
2022-12-13T05:00:13.217Z,28.88
2022-12-13T05:01:21.871Z,27.27
2022-12-13T05:02:31.486Z,29.50
2022-12-13T05:03:41.295Z,28.38
2022-12-13T05:04:54.329Z,29.32
2022-12-13T05:07:23.851Z,28.87
2022-12-13T05:08:33.569Z,28.00
2022-12-13T05:09:43.305Z,26.32
2022-12-13T05:10:54.691Z,26.70
2022-12-13T05:12:05.839Z,25.67
2022-12-13T05:13:16.895Z,26.18
2022-12-13T05:14:25.771Z,24.15
2022-12-13T05:15:35.573Z,25.78
2022-12-13T05:16:51.234Z,26.20
2022-12-13T05:18:10.618Z,24.15
2022-12-13T05:19:15.377Z,24.28
2022-12-13T05:21:39.711Z,27.93
2022-12-13T05:22:49.271Z,23.72
2022-12-13T05:23:57.896Z,26.02
2022-12-13T05:25:07.954Z,26.32
2022-12-13T05:26:17.206Z,20.10
2022-12-13T05:28:41.032Z,26.03
2022-12-13T05:29:49.554Z,22.62
2022-12-13T05:32:18.216Z,25.20
2022-12-13T05:33:26.945Z,22.77
2022-12-13T05:36:11.068Z,23.45
2022-12-13T05:38:35.616Z,23.53
2022-12-13T05:39:46.920Z,20.92
2022-12-13T05:40:55.900Z,22.68
2022-12-13T05:42:05.746Z,22.77
2022-12-13T05:43:21.958Z,23.48
2022-12-13T05:44:25.196Z,24.12
2022-12-13T05:45:34.724Z,24.57
2022-12-13T05:46:44.502Z,24.63
2022-12-13T05:47:53.593Z,24.10
2022-12-13T05:49:03.287Z,27.00
2022-12-13T05:50:14.794Z,24.77
2022-12-13T05:51:24.916Z,24.40
2022-12-13T05:52:34.614Z,20.82
2022-12-13T05:53:43.429Z,22.33
2022-12-13T05:54:56.110Z,21.50
2022-12-13T05:56:08.870Z,22.07
2022-12-13T05:58:28.196Z,26.28
2022-12-13T05:59:38.722Z,25.33
2022-12-13T06:00:47.670Z,26.43
2022-12-13T06:01:56.435Z,28.33
2022-12-13T06:03:05.426Z,28.78
2022-12-13T06:04:22.267Z,24.42
2022-12-13T06:05:24.970Z,23.08
2022-12-13T06:06:36.601Z,26.23
2022-12-13T06:07:46.141Z,23.47
2022-12-13T06:08:55.301Z,23.20
2022-12-13T06:10:10.356Z,21.80
2022-12-13T06:11:32.184Z,24.15
2022-12-13T06:12:31.861Z,28.07
2022-12-13T06:13:43.944Z,26.30
2022-12-13T06:14:52.569Z,24.83
2022-12-13T06:16:05.920Z,25.20
2022-12-13T06:17:16.522Z,27.00
2022-12-13T06:18:33.229Z,24.10
2022-12-13T06:19:42.137Z,22.52
2022-12-13T06:22:17.100Z,25.02
2022-12-13T06:23:28.557Z,24.53
2022-12-13T06:24:38.488Z,26.14
2022-12-13T06:25:51.530Z,30.30
2022-12-13T06:27:00.621Z,30.00
2022-12-13T06:28:09.932Z,26.38
2022-12-13T06:29:23.714Z,28.77
2022-12-13T06:30:33.276Z,26.68
2022-12-13T06:31:42.948Z,27.88
2022-12-13T06:32:52.467Z,29.38
2022-12-13T06:34:14.465Z,29.88
2022-12-13T06:35:27.321Z,29.30
2022-12-13T06:36:25.670Z,32.78
2022-12-13T06:37:35.198Z,32.75
2022-12-13T06:38:44.740Z,30.27
2022-12-13T06:39:54.479Z,29.70
2022-12-13T06:41:09.456Z,29.95
2022-12-13T06:42:22.164Z,31.13
2022-12-13T06:43:30.245Z,28.88
2022-12-13T06:44:41.797Z,33.47
2022-12-13T06:45:51.292Z,33.68
2022-12-13T06:47:10.707Z,34.43
2022-12-13T06:48:18.736Z,32.95
2022-12-13T06:49:26.225Z,32.80
2022-12-13T06:50:37.708Z,34.43
2022-12-13T06:51:46.753Z,35.47
2022-12-13T06:52:56.389Z,35.23
2022-12-13T06:54:06.146Z,30.85
2022-12-13T06:56:36.104Z,31.76
2022-12-13T06:57:44.614Z,28.80
2022-12-13T06:58:53.433Z,30.77
2022-12-13T07:00:05.901Z,28.82
2022-12-13T10:49:59.116Z,15.50
2022-12-13T10:51:12.450Z,16.35
2022-12-13T10:52:34.262Z,16.32
2022-12-13T10:56:49.698Z,17.92
2022-12-13T10:59:36.304Z,18.12
2022-12-13T11:03:34.032Z,20.75
2022-12-13T11:04:42.808Z,22.73
2022-12-13T11:07:26.136Z,21.75
2022-12-13T11:08:36.234Z,20.95
2022-12-13T11:09:44.897Z,22.80
2022-12-13T11:11:00.121Z,25.33
2022-12-13T11:12:15.804Z,26.68
2022-12-13T11:13:38.052Z,27.26
2022-12-13T11:15:00.309Z,26.05
2022-12-13T11:17:56.020Z,25.77
2022-12-13T11:19:25.340Z,26.50
2022-12-13T11:20:37.697Z,32.05
2022-12-13T11:21:50.268Z,31.62
2022-12-13T11:23:06.287Z,29.92
2022-12-13T11:25:45.797Z,32.48
2022-12-13T11:28:30.034Z,46.02
2022-12-13T11:34:32.261Z,33.68
2022-12-13T11:37:34.866Z,30.30
2022-12-13T11:40:31.053Z,28.57
2022-12-13T11:41:49.162Z,28.25
2022-12-13T11:45:06.496Z,31.17
2022-12-13T11:48:08.770Z,36.35
2022-12-13T11:49:40.932Z,32.97
2022-12-13T11:50:52.971Z,34.12
2022-12-13T11:53:41.564Z,36.58
2022-12-13T11:55:00.065Z,32.55
2022-12-13T11:56:24.016Z,32.40
2022-12-13T11:58:05.160Z,31.70
2022-12-13T12:00:36.647Z,32.88
2022-12-13T12:01:53.032Z,34.20
2022-12-13T12:03:20.631Z,34.95
2022-12-13T12:07:48.274Z,36.82
2022-12-13T12:10:20.785Z,35.52
2022-12-13T12:11:45.760Z,38.00
2022-12-13T12:14:45.024Z,26.53
2022-12-13T12:16:27.176Z,26.60
2022-12-13T12:17:42.249Z,27.52
2022-12-13T12:18:46.266Z,33.55
2022-12-13T12:19:57.905Z,30.70
2022-12-13T12:21:23.057Z,40.42
2022-12-13T12:22:38.652Z,41.52
2022-12-13T12:24:08.981Z,35.22
2022-12-13T12:25:24.161Z,34.75
2022-12-13T12:26:54.231Z,32.13
2022-12-13T12:28:44.385Z,33.73
2022-12-13T12:30:13.541Z,37.32
2022-12-13T12:33:14.838Z,37.78
2022-12-13T12:34:42.272Z,37.67
2022-12-13T12:36:11.113Z,36.13
2022-12-13T12:37:31.544Z,36.67
2022-12-13T12:40:23.971Z,33.03
2022-12-13T12:41:54.595Z,30.35
2022-12-13T12:43:25.374Z,27.30
2022-12-13T12:46:19.681Z,29.02
2022-12-13T12:49:43.751Z,31.40
2022-12-13T12:51:11.539Z,33.97
2022-12-13T12:52:30.672Z,39.93
2022-12-13T12:55:13.330Z,45.30
2022-12-13T12:56:49.866Z,42.90
2022-12-13T12:59:46.193Z,38.80
2022-12-13T13:01:36.110Z,34.95
2022-12-13T13:03:05.224Z,32.70
2022-12-13T13:04:22.246Z,30.90
2022-12-13T13:08:21.777Z,27.15
2022-12-13T13:09:32.170Z,24.60
2022-12-13T13:10:49.619Z,24.20
2022-12-13T13:11:57.681Z,26.43
2022-12-13T13:13:33.053Z,25.43
2022-12-13T13:15:57.645Z,25.38
2022-12-13T13:17:26.415Z,24.20
2022-12-13T13:18:49.999Z,24.12
2022-12-13T13:20:23.752Z,23.50
2022-12-13T13:21:36.410Z,20.10
2022-12-13T13:24:24.189Z,20.80
2022-12-13T13:25:48.813Z,22.05
2022-12-13T13:26:57.097Z,22.47
2022-12-13T13:28:17.807Z,23.17
2022-12-13T13:29:31.872Z,25.32
2022-12-13T13:33:49.716Z,24.78
2022-12-13T13:36:44.119Z,22.73
2022-12-13T13:37:52.635Z,24.02
2022-12-13T13:39:02.044Z,21.63
2022-12-13T13:40:34.366Z,25.60
2022-12-13T13:42:06.821Z,22.00
2022-12-13T13:44:46.759Z,23.80
2022-12-13T13:46:11.860Z,23.20
2022-12-13T13:47:24.165Z,22.48
2022-12-13T13:49:03.553Z,24.13
2022-12-13T13:52:24.463Z,23.98
2022-12-13T13:53:26.366Z,23.88
2022-12-13T13:54:53.003Z,23.30
2022-12-13T14:02:13.222Z,23.28
2022-12-13T14:03:34.106Z,22.48
2022-12-13T14:06:37.075Z,23.45
2022-12-13T14:08:13.107Z,23.77
2022-12-13T14:09:42.305Z,23.93
2022-12-13T14:12:29.975Z,25.38
2022-12-13T14:14:00.805Z,29.68
2022-12-13T14:15:36.925Z,23.58
2022-12-13T14:16:56.289Z,20.58
2022-12-13T14:20:11.462Z,21.53
2022-12-13T14:25:07.217Z,21.15
2022-12-13T14:26:38.770Z,21.77
2022-12-13T14:28:00.655Z,20.92
2022-12-13T14:29:19.348Z,23.25
2022-12-13T14:30:29.811Z,25.35
2022-12-13T14:31:47.116Z,23.87
2022-12-13T14:32:57.953Z,25.40
2022-12-13T14:35:32.195Z,21.54
2022-12-13T18:11:33.418Z,15.95
2022-12-13T18:12:41.700Z,14.42
2022-12-13T18:13:54.927Z,17.83
2022-12-13T18:15:00.950Z,15.80
2022-12-13T18:16:12.369Z,12.77
2022-12-13T18:17:22.640Z,13.70
2022-12-13T18:18:32.524Z,10.57
2022-12-13T18:19:41.392Z,11.45
2022-12-13T18:20:50.095Z,10.37
2022-12-13T18:21:59.101Z,8.98
2022-12-13T18:23:07.759Z,8.68
2022-12-13T18:24:16.277Z,8.55
2022-12-13T18:25:25.212Z,8.30
2022-12-13T18:26:34.740Z,7.00
2022-12-13T18:27:43.282Z,6.80
2022-12-13T18:28:52.766Z,6.15
2022-12-13T18:30:02.373Z,7.18
2022-12-13T18:32:50.720Z,7.22
2022-12-13T18:33:59.361Z,6.20
2022-12-13T18:35:08.138Z,7.95
2022-12-13T18:36:21.624Z,6.45
2022-12-13T18:37:30.475Z,5.88
2022-12-13T18:38:44.471Z,6.95
2022-12-13T18:39:54.976Z,6.22
2022-12-13T18:42:22.835Z,6.90
2022-12-13T18:43:32.569Z,6.32
2022-12-13T18:44:54.403Z,7.02
2022-12-13T18:45:55.390Z,6.30
2022-12-13T18:47:04.456Z,6.72
2022-12-13T18:48:14.202Z,5.48
2022-12-13T18:49:23.648Z,8.25
2022-12-13T18:50:34.953Z,7.37
2022-12-13T18:51:43.951Z,10.32
2022-12-13T18:52:52.660Z,8.63
2022-12-13T18:54:01.565Z,8.93
2022-12-13T18:55:10.708Z,6.75
2022-12-13T18:56:20.847Z,7.52
2022-12-13T18:57:29.393Z,7.98
2022-12-13T18:58:39.652Z,10.13
2022-12-13T18:59:54.290Z,7.84
2022-12-13T19:01:01.353Z,7.37
2022-12-13T19:02:14.971Z,149.82
2022-12-13T19:04:40.944Z,40.90
2022-12-13T19:05:56.808Z,15.75
2022-12-13T19:07:06.257Z,9.45
2022-12-13T19:08:15.387Z,7.82
2022-12-13T19:09:24.436Z,7.23
2022-12-13T19:10:35.506Z,6.35
2022-12-13T19:11:46.566Z,8.42
2022-12-13T19:12:57.625Z,7.53
2022-12-13T19:15:24.595Z,8.80
2022-12-13T19:17:53.146Z,8.27
2022-12-13T19:19:02.355Z,7.50
2022-12-13T19:20:12.776Z,8.60
2022-12-13T19:21:26.952Z,8.80
2022-12-13T19:23:57.840Z,8.96
2022-12-13T19:25:07.664Z,8.20
2022-12-13T19:26:20.784Z,7.20
2022-12-13T19:28:42.914Z,7.02
2022-12-13T19:29:54.332Z,5.37
2022-12-13T19:31:08.408Z,6.33
2022-12-13T19:32:19.485Z,5.37
2022-12-13T19:33:33.369Z,5.95
2022-12-13T19:35:58.409Z,8.62
2022-12-13T19:37:09.044Z,7.23
2022-12-13T19:38:19.221Z,6.53
2022-12-13T19:39:28.508Z,5.77
2022-12-13T19:40:42.034Z,6.65
2022-12-13T19:41:52.960Z,4.88
2022-12-13T19:43:04.871Z,8.58
2022-12-13T19:44:18.608Z,4.33
2022-12-13T19:45:28.703Z,5.30
2022-12-13T19:46:38.988Z,6.05
2022-12-13T19:47:56.883Z,5.70
2022-12-13T19:49:14.791Z,5.28
2022-12-13T19:51:46.508Z,6.50
2022-12-13T19:52:56.397Z,5.72
2022-12-13T19:54:13.541Z,7.48
2022-12-13T19:55:29.025Z,8.25
2022-12-13T19:56:39.029Z,10.15
2022-12-13T19:57:56.898Z,8.33
2022-12-13T19:59:08.582Z,8.18
2022-12-13T20:00:21.656Z,7.43
2022-12-13T20:02:52.123Z,6.35
2022-12-13T20:04:03.556Z,6.76
2022-12-13T20:05:15.053Z,7.00
2022-12-13T20:06:25.340Z,9.70
2022-12-13T20:07:34.489Z,8.17
2022-12-13T20:10:00.303Z,7.55
2022-12-13T20:11:12.632Z,7.45
2022-12-13T20:12:24.302Z,6.40
2022-12-13T20:14:56.782Z,6.60
2022-12-13T20:17:23.928Z,6.57
2022-12-13T20:19:55.623Z,7.30
2022-12-13T20:22:28.116Z,7.16
2022-12-13T20:23:40.589Z,7.43
2022-12-13T20:24:50.597Z,7.87
2022-12-13T20:26:03.903Z,8.43
2022-12-13T20:27:17.992Z,7.92
2022-12-13T20:29:48.697Z,7.80
2022-12-13T20:32:33.995Z,6.90
2022-12-13T20:37:31.057Z,7.52
2022-12-13T20:38:45.054Z,8.13
2022-12-13T20:39:55.622Z,8.70
2022-12-13T20:41:10.309Z,9.92
2022-12-13T20:42:22.949Z,8.20
2022-12-13T20:43:37.962Z,8.90
2022-12-13T20:44:49.235Z,8.07
2022-12-13T20:47:28.025Z,10.35
2022-12-13T20:48:39.094Z,7.98
2022-12-13T20:49:49.082Z,6.83
2022-12-13T20:51:09.884Z,7.53
2022-12-13T20:52:21.685Z,8.07
2022-12-13T20:53:35.539Z,7.47
2022-12-13T20:54:44.948Z,8.13
2022-12-13T20:56:02.249Z,8.15
2022-12-13T20:58:36.812Z,7.23
2022-12-13T20:59:43.355Z,7.17
2022-12-13T21:00:53.294Z,8.38
2022-12-13T21:02:02.410Z,8.27
2022-12-13T21:03:11.304Z,7.37
2022-12-13T21:04:20.742Z,8.37
2022-12-13T21:05:31.269Z,8.56
2022-12-13T21:06:42.393Z,8.75
2022-12-13T21:08:11.202Z,8.07
2022-12-13T21:10:35.051Z,10.67
2022-12-13T21:11:46.637Z,9.10
2022-12-13T21:12:55.287Z,8.92
2022-12-13T21:14:24.688Z,11.90
2022-12-13T21:15:33.312Z,10.32
2022-12-13T21:16:48.408Z,9.43
2022-12-13T21:17:58.008Z,9.30
2022-12-13T21:19:09.445Z,8.02
2022-12-13T21:20:18.561Z,8.05
2022-12-13T21:21:28.753Z,9.25
2022-12-13T21:23:54.982Z,8.28
2022-12-13T21:25:04.544Z,9.40
2022-12-13T21:26:13.500Z,9.15
2022-12-13T21:27:23.087Z,8.95
2022-12-13T21:28:33.292Z,9.50
2022-12-13T21:29:42.840Z,8.07
2022-12-13T21:31:07.795Z,9.07
2022-12-13T21:32:17.353Z,9.27
2022-12-13T21:33:27.545Z,8.42
2022-12-13T21:34:36.706Z,8.60
2022-12-13T21:35:45.248Z,9.10
2022-12-13T21:36:54.061Z,8.83
2022-12-13T21:38:05.434Z,8.07
2022-12-13T21:39:18.806Z,8.88
2022-12-13T21:40:29.227Z,8.23
2022-12-13T21:41:39.518Z,8.76
2022-12-13T21:42:48.029Z,8.45
2022-12-13T21:43:57.193Z,9.85
2022-12-13T21:45:07.201Z,9.22
2022-12-13T21:46:18.944Z,9.67
2022-12-13T21:47:28.179Z,8.28
2022-12-13T21:48:40.301Z,8.40
2022-12-13T21:49:49.155Z,9.70
2022-12-13T21:50:58.486Z,8.87
2022-12-13T21:52:07.098Z,8.68
2022-12-13T21:53:16.112Z,8.38
2022-12-13T21:54:24.627Z,9.42
2022-12-13T21:55:40.481Z,9.58
2022-12-13T21:57:02.437Z,9.00
2022-12-13T21:58:30.427Z,9.72
2022-12-13T22:00:54.840Z,8.43
2022-12-13T22:02:15.151Z,8.03
2022-12-13T22:04:41.302Z,8.45
2022-12-13T22:05:50.760Z,8.32
2022-12-13T22:07:00.364Z,10.10
2022-12-13T22:08:09.449Z,8.43
2022-12-13T22:09:18.464Z,10.08
2022-12-13T22:10:27.309Z,8.08
2022-12-13T22:11:36.423Z,8.90
2022-12-13T22:12:46.159Z,8.80
2022-12-13T22:13:56.787Z,8.27
2022-12-13T22:16:25.751Z,7.95
2022-12-13T22:17:37.838Z,8.32
2022-12-13T22:18:46.740Z,8.60
2022-12-13T22:19:56.412Z,8.55
2022-12-13T22:21:06.967Z,8.35
2022-12-13T22:22:17.415Z,10.65
2022-12-13T22:23:26.984Z,8.30
2022-12-13T22:24:37.636Z,8.30
2022-12-13T22:25:46.574Z,8.70
2022-12-13T22:26:57.183Z,8.30
2022-12-13T22:28:05.687Z,8.75
2022-12-13T22:29:15.149Z,9.53
2022-12-13T22:30:25.547Z,7.77
2022-12-13T22:31:34.184Z,8.15
2022-12-13T22:32:43.833Z,8.56
2022-12-13T22:33:52.868Z,8.58
2022-12-13T22:35:01.732Z,8.83
2022-12-13T22:36:11.638Z,9.72
2022-12-13T22:37:20.375Z,8.87
2022-12-13T22:38:29.798Z,9.38
2022-12-13T22:39:39.590Z,9.22
2022-12-13T22:40:48.870Z,9.10
2022-12-13T22:41:57.423Z,8.23
2022-12-13T22:43:06.496Z,10.22
2022-12-13T22:44:17.113Z,12.38
2022-12-13T22:45:26.813Z,9.27
2022-12-13T22:46:36.360Z,9.17
2022-12-13T22:47:47.073Z,9.10
2022-12-13T22:48:57.619Z,8.42
2022-12-13T22:50:07.770Z,8.83
2022-12-13T22:51:17.597Z,9.42
2022-12-13T22:52:32.015Z,10.10
2022-12-13T22:53:40.969Z,9.12
2022-12-13T22:54:51.566Z,9.30
2022-12-13T22:57:27.710Z,8.50
2022-12-13T22:58:38.487Z,8.03
2022-12-13T22:59:49.297Z,8.95
2022-12-13T23:00:58.429Z,9.50
2022-12-13T23:02:11.235Z,9.32
2022-12-13T23:03:19.956Z,9.15
2022-12-13T23:04:28.947Z,9.35
2022-12-13T23:06:53.994Z,9.35
2022-12-13T23:09:17.803Z,9.30
2022-12-13T23:10:46.321Z,10.33
2022-12-13T23:12:13.376Z,9.95
2022-12-13T23:13:22.391Z,11.20
2022-12-13T23:14:33.376Z,10.15
2022-12-13T23:15:47.587Z,10.32
2022-12-13T23:16:53.908Z,10.53
2022-12-13T23:18:04.081Z,12.15
2022-12-13T23:20:27.089Z,10.78
2022-12-13T23:21:36.700Z,10.50
2022-12-13T23:22:45.234Z,11.82
2022-12-13T23:23:56.519Z,10.20
2022-12-13T23:25:07.128Z,10.70
2022-12-13T23:26:20.687Z,11.53
2022-12-13T23:27:29.767Z,10.68
2022-12-13T23:28:41.099Z,11.65
2022-12-13T23:29:51.361Z,11.05
2022-12-13T23:31:01.641Z,12.10
2022-12-13T23:32:12.780Z,12.16
2022-12-13T23:33:22.226Z,13.00
2022-12-13T23:34:32.889Z,12.35
2022-12-13T23:35:42.484Z,12.82
2022-12-13T23:36:51.698Z,11.10
2022-12-13T23:38:01.235Z,11.33
2022-12-13T23:39:11.045Z,11.08
2022-12-13T23:40:19.670Z,10.62
2022-12-13T23:41:33.921Z,10.82
2022-12-13T23:42:42.627Z,12.00
2022-12-13T23:43:55.144Z,11.73
2022-12-13T23:45:05.672Z,11.10
2022-12-13T23:47:33.855Z,10.35
2022-12-13T23:48:44.299Z,9.55
2022-12-13T23:49:52.799Z,10.55
2022-12-13T23:51:04.445Z,11.08
2022-12-13T23:52:14.596Z,11.95
2022-12-13T23:53:24.303Z,11.52
2022-12-13T23:54:33.357Z,10.55
2022-12-13T23:55:42.911Z,11.22
2022-12-13T23:56:54.061Z,12.15
2022-12-13T23:58:03.373Z,11.75
2022-12-13T23:59:13.430Z,12.57
